Sunday, May 29, 2016
05:49 UTC
  |  Log In   |  Register Free
Airport Search:

Heart Of Georgia Regional Airport
(KEZM)

FAA data valid effective Mar 31 2016 - May 26 2016 (unless otherwise noted).

 
 
 
 
 
 
 
 
 
 
 
 
 
 
Current Aviation Weather for KEZM

Weather Summary


The most recent METAR observation for EZM was updated at: 12:55 UTC
METAR for KEZM is not available. Closest METAR is for KDBN
KEZM  (most recent observation was updatred at 29:05 UTC)
290535Z AUTO 00000KT 10SM SCT085 22/18 A3012 RMK AO2 T02160177

KDBN  (22.1 nm SW)   (most recent observation was updated at 29:05 UTC)
290535Z AUTO 09004KT 10SM CLR 20/17 A3011 RMK AO2

KAZE  (31.6 nm NW)   (most recent observation was updated at 29:05 UTC)
290535Z AUTO 00000KT 10SM CLR 22/18 A3007 RMK AO2 T02230180

TAF for KEZM is not available.
KWRB  (34.6 nm SE)   (most recent observation was updatred at 29:05 UTC)
290500Z 2905/3011 VRB06KT 9999 FEW045 510242 QNH3004INS BECMG 2918/2919 VRB06KT 9999 FEW040 QNH2996INS TX32/2921Z TN18/2909Z


GlobalAir.com is loading additional information.
 Current Weather at EZM
74.0 F° (23.4 C°)

East winds at 6.9 mph
Pressure:
30.12 in
Humidity:
78%
Wind:
East at 6.9 mph
Dew Point:
66.7 F° (19.3 C°)
Visibility:
10.00 mi
EZM NOAA Radar




Find All Airport Services Find A Hotel Find A Rental Car Find A Golf Course Find A Restaurant $100 Hamburger



Airport Weather Forecast for KEZM

Translated METAR for KEZM (0535 UTC)
METAR:
KEZM 290535Z AUTO 00000KT 10SM SCT085 22/18 A3012 RMK AO2 T02160177
Conditions at:
KEZM (Heart Of Georgia Rgnl, GA) observed 0535 UTC 29 May 2016
Temperature:
22°C (71.6°F)
Dewpoint:
18°C (64.4°F) [RH = 78.1]
Pressure:
30.12 inches Hg (1020 mb)
Winds:
from the N (000 degrees) at 0 mph (0 knots: 0 m/s)
Visibility:
10 mile(s)
Ceiling:
at least 12,000 feet AGL
Clouds:
Scattered Clouds at 8,500 feet AGL
Remarks:
site is un-manned
site is automated and HAS a precipitation sensor

Translated TAF for KWRB (Robins Afb, GA) (0500 UTC)
TAF text:
KWRB 290500Z 2905/3011 VRB06KT 9999 FEW045 510242 QNH3004INS BECMG 2918/2919 VRB06KT 9999 FEW040 QNH2996INS TX32/2921Z TN18/2909Z
Forecast period:
Sunday May 29 2016 05:00 UTC - Monday May 30 2016 11:00 UTC
Forecast type:
FROM: standard forecast or significant change
Winds:
variable wind direction at 6.9 mph (6 knots: 3.1 m/s)
Visibility:
Ceiling:
at least 12,000 feet AGL
at least 12,000 feet AGL
Clouds:
Few Clouds at 4,500 feet AGL
Few Clouds at 4,000 feet AGL
Weather:
no significant weather observed at this time
FBO's on the Field
FBO Company Facility Photos Services Transportation Aviation Fuel Prices: Prices include tax
Catering Weather Repair Courtesy Rental Type 100LL JetA JetA+ MOGAS 8087
 
Heart of Georgia Regional Airport

This FBO has not yet been rated
FS:Phillips 66
Last Updated: May-06
Login to update fuel prices
SS:
Contact Heart of Georgia Regional AirportMore FBO Information
 
Add another FBO Facility Photos Catering Weather Repair Courtesy Rental Type 100LL JetA JetA+ MOGAS 8087
Services Transportation Aviation Fuel Prices: Prices include tax


model-print
model-print
model-print
model-print